KSEG/SEG METAR and TAF weather

Enter ICAO airport designator
Station Type Date Time Source
KSEG METAR 2022/06/27 07:53 UTC NOAA

KSEG 270753Z AUTO 21003KT 10SM FEW015 BKN060 BKN080 22/21 A2993 RMK AO2 SLP134 T02170206


Station Type Date Time Source
KSEG Decoded METAR 2022/06/27 07:53 UTC NOAA

SELINSGROVE PENN VALLEY AIRPORT , PA, United States (KSEG) 40-49N 076-52W 134M
Jun 27, 2022 - 03:53 AM EDT / 2022.06.27 0753 UTC
Wind: from the SSW (210 degrees) at 3 MPH (3 KT):0
Visibility: 10 mile(s):0
Sky conditions: mostly cloudy
Temperature: 71.1 F (21.7 C)
Dew Point: 69.1 F (20.6 C)
Relative Humidity: 93%
Pressure (altimeter): 29.93 in. Hg (1013 hPa)
ob: KSEG 270753Z AUTO 21003KT 10SM FEW015 BKN060 BKN080 22/21 A2993 RMK AO2 SLP134 T02170206
cycle: 8

Station Type Date Time Source
KSEG TAF UTC NOAA

Error!

Example: see airport list